DW1521 Weather Reports


Display with metric or nautical units.
time (UTC)temp
F
wind
direction
speed
MPH
gust
MPH
rain 1hr
in
rain 24hr
in
rain mn
in
humidity
%
barometer
mb
20181121205105 36 345 4.0 9.0 0.00 0.90 0.90 100 1015.0
20181121204106 36 328 3.0 10.0 0.00 0.90 0.90 100 1015.0
20181121203605 36 351 6.0 10.0 0.00 0.90 0.90 100 1015.0
20181121202106 36 337 5.0 8.0 0.00 0.90 0.90 100 1015.0
20181121201605 36 352 5.0 10.0 0.00 0.90 0.90 100 1015.0
20181121201105 36 345 5.0 9.0 0.00 0.90 0.90 100 1015.0
20181121200606 36 348 5.0 9.0 0.00 0.90 0.90 100 1015.0
20181121195606 36 353 7.0 12.0 0.00 0.90 0.90 100 1015.0
20181121194605 36 352 5.0 8.0 0.00 0.90 0.90 100 1014.0
20181121193605 37 359 6.0 8.0 0.00 0.90 0.90 100 1015.0
20181121193105 37 353 4.0 9.0 0.00 0.90 0.90 100 1015.0
20181121192606 37 337 3.0 6.0 0.00 0.90 0.90 100 1015.0
20181121192106 37 342 6.0 8.0 0.00 0.90 0.90 100 1014.0
20181121191605 37 343 6.0 9.0 0.00 0.90 0.90 100 1014.0
20181121191106 37 294 7.0 9.0 0.00 0.90 0.90 100 1014.0
20181121190606 37 290 5.0 8.0 0.00 0.90 0.90 100 1014.0
20181121190106 37 285 5.0 8.0 0.05 0.90 0.90 100 1014.0
20181121184105 37 300 5.0 8.0 0.05 0.90 0.90 100 1014.0
20181121183605 37 314 4.0 10.0 0.05 0.90 0.90 100 1014.0
20181121183106 37 319 7.0 10.0 0.05 0.90 0.90 100 1014.0
20181121182606 37 305 6.0 8.0 0.05 0.90 0.90 100 1014.0
20181121182105 37 287 5.0 7.0 0.05 0.90 0.90 100 1013.1
20181121181605 37 306 6.0 9.0 0.05 0.90 0.90 100 1013.0
20181121181106 38 306 6.0 8.0 0.05 0.90 0.90 100 1013.0
20181121180605 38 295 6.0 8.0 0.05 0.90 0.90 100 1013.0
20181121180105 38 313 6.0 9.0 0.00 0.85 0.85 100 1013.0
20181121175606 38 287 6.0 9.0 0.00 0.85 0.85 100 1013.0
20181121175106 38 255 5.0 9.0 0.00 0.85 0.85 100 1013.0
20181121174605 38 293 5.0 9.0 0.00 0.85 0.85 100 1013.0
20181121173605 38 311 6.0 9.0 0.00 0.85 0.85 100 1013.0
20181121172605 38 322 6.0 10.0 0.00 0.85 0.85 100 1013.0
20181121172105 39 310 7.0 10.0 0.05 0.85 0.85 100 1012.0
20181121171606 39 327 6.0 10.0 0.05 0.85 0.85 100 1012.0
20181121171106 39 310 6.0 13.0 0.05 0.85 0.85 100 1012.0
20181121170605 39 310 6.0 9.0 0.05 0.85 0.85 100 1012.0
20181121170106 39 321 7.0 9.0 0.05 0.85 0.85 100 1012.0
20181121164605 40 299 2.0 3.0 0.05 0.90 0.85 100 1011.0
20181121164105 40 287 0.0 3.0 0.05 0.90 0.85 100 1011.0
20181121163605 40 303 0.0 3.0 0.05 0.90 0.85 100 1011.0
20181121163105 40 326 1.0 3.0 0.05 0.90 0.85 100 1011.0
20181121162105 40 314 3.0 6.0 0.00 0.85 0.80 100 1011.0
20181121160605 41 340 3.0 6.0 0.00 0.85 0.80 100 1011.0
20181121155605 41 331 0.0 5.0 0.00 0.85 0.80 100 1011.0
20181121155105 41 336 1.0 3.0 0.00 0.85 0.80 100 1011.0
20181121154606 41 320 1.0 3.0 0.00 0.85 0.80 100 1011.0
20181121153606 41 294 1.0 3.0 0.05 0.85 0.80 100 1010.0
20181121153105 41 332 2.0 3.0 0.05 0.85 0.80 100 1010.0
20181121152606 41 279 2.0 5.0 0.05 0.85 0.80 100 1010.0
20181121152106 42 320 2.0 3.0 0.05 0.85 0.80 100 1010.0
20181121151106 42 327 2.0 6.0 0.09 0.85 0.80 100 1010.0
20181121150606 42 305 0.0 3.0 0.09 0.85 0.80 100 1010.0
20181121150106 42 302 1.0 3.0 0.09 0.85 0.80 100 1010.0
20181121145606 42 297 2.0 5.0 0.09 0.85 0.80 100 1010.0
20181121145105 42 310 2.0 6.0 0.09 0.85 0.80 100 1010.0
20181121144606 43 281 1.0 3.0 0.09 0.85 0.80 100 1010.0
20181121144106 43 281 0.0 3.0 0.09 0.85 0.80 100 1010.0
20181121143607 43 281 0.0 3.0 0.05 0.80 0.76 100 1010.0
20181121143106 43 281 0.0 3.0 0.09 0.80 0.76 100 1010.0
20181121142606 43 281 2.0 3.0 0.09 0.80 0.76 100 1010.0
20181121141606 43 281 0.0 2.0 0.09 0.80 0.76 100 1010.0
20181121141106 43 281 1.0 3.0 0.09 0.76 0.71 100 1010.0
20181121140606 43 281 0.0 0.0 0.09 0.76 0.71 100 1010.0
20181121140106 43 281 0.0 0.0 0.09 0.76 0.71 100 1010.0
20181121134606 43 281 0.0 0.0 0.14 0.76 0.71 100 1010.0
20181121133106 43 281 0.0 0.0 0.14 0.71 0.66 100 1010.0
20181121132106 43 353 0.0 0.0 0.14 0.71 0.66 100 1010.0
20181121131606 43 353 0.0 0.0 0.14 0.71 0.66 100 1010.0
20181121131107 43 353 0.0 0.0 0.09 0.66 0.61 100 1010.0
20181121130606 43 353 0.0 0.0 0.14 0.66 0.61 100 1010.0
20181121130105 43 353 0.0 0.0 0.14 0.66 0.61 100 1010.0
20181121125606 43 353 0.0 0.0 0.14 0.66 0.61 100 1010.0
20181121124106 43 353 0.0 0.0 0.14 0.66 0.57 100 1010.0
20181121123606 43 353 0.0 0.0 0.14 0.66 0.57 100 1010.0
20181121123106 43 353 0.0 0.0 0.09 0.61 0.52 100 1010.0
20181121122605 43 353 0.0 0.0 0.09 0.61 0.52 100 1010.0
20181121122106 43 353 0.0 0.0 0.09 0.61 0.52 100 1010.0
20181121121606 43 353 0.0 0.0 0.09 0.61 0.52 100 1010.0
20181121121105 43 353 0.0 0.0 0.14 0.61 0.52 100 1010.0
20181121120606 43 353 0.0 0.0 0.09 0.57 0.47 100 1010.0
20181121115606 43 353 0.0 0.0 0.09 0.57 0.47 100 1010.0
20181121115106 43 353 0.0 0.0 0.14 0.52 0.43 100 1010.0
20181121114605 43 353 0.0 3.0 0.14 0.52 0.43 100 1010.0
20181121114106 43 353 0.0 3.0 0.14 0.52 0.43 100 1010.0
20181121113606 43 353 0.0 0.0 0.14 0.52 0.43 100 1011.0
20181121113112 43 353 0.0 0.0 0.14 0.52 0.43 100 1011.0
20181121112106 43 353 0.0 0.0 0.14 0.52 0.43 100 1010.1
20181121111606 43 353 0.0 0.0 0.19 0.52 0.43 100 1010.0
20181121111106 43 353 0.0 2.0 0.14 0.47 0.38 100 1010.0
20181121110606 43 353 0.0 3.0 0.19 0.47 0.38 100 1010.0
20181121105606 42 353 0.0 0.0 0.19 0.47 0.38 100 1010.0
20181121105105 42 134 0.0 0.0 0.09 0.38 0.28 100 1010.0
20181121104606 42 134 0.0 0.0 0.09 0.38 0.28 100 1010.0
20181121103606 42 134 0.0 0.0 0.14 0.38 0.28 100 1010.0
20181121102606 42 134 0.0 0.0 0.19 0.38 0.28 100 1010.0
20181121102105 42 134 0.0 0.0 0.19 0.38 0.28 100 1010.9
20181121101605 42 134 0.0 0.0 0.14 0.33 0.24 100 1011.0
20181121101106 42 134 0.0 0.0 0.14 0.33 0.24 100 1011.0
20181121100605 42 134 0.0 0.0 0.09 0.28 0.19 100 1011.0
20181121095606 42 134 0.0 0.0 0.14 0.28 0.19 100 1011.0
20181121095105 42 134 0.0 0.0 0.14 0.28 0.19 100 1011.0
20181121094606 42 134 0.0 0.0 0.14 0.28 0.19 100 1011.0
20181121094106 42 134 0.0 0.0 0.14 0.24 0.14 100 1011.0
20181121093605 42 134 0.0 0.0 0.14 0.24 0.14 100 1011.0
20181121093106 42 134 0.0 0.0 0.09 0.19 0.09 100 1011.0
20181121092606 42 134 0.0 0.0 0.09 0.19 0.09 100 1011.0
20181121091606 41 134 0.0 0.0 0.09 0.19 0.09 100 1011.0
20181121091105 41 134 0.0 0.0 0.09 0.19 0.09 100 1011.0
20181121090606 41 134 0.0 0.0 0.09 0.19 0.09 100 1011.0
20181121090106 41 134 0.0 0.0 0.05 0.14 0.05 100 1011.0
20181121085606 41 134 0.0 2.0 0.05 0.14 0.05 100 1011.0
20181121085106 41 134 0.0 0.0 0.05 0.14 0.05 100 1011.0
20181121084605 41 134 0.0 0.0 0.05 0.14 0.05 100 1011.0
20181121084106 41 134 0.0 0.0 0.00 0.09 0.00 100 1011.0
20181121083605 41 134 0.0 3.0 0.00 0.09 0.00 100 1011.0
20181121083105 41 134 0.0 0.0 0.00 0.09 0.00 100 1011.0
20181121082106 41 134 0.0 3.0 0.00 0.09 0.00 100 1011.0
20181121081105 41 134 0.0 0.0 0.00 0.09 0.00 100 1011.0
20181121080605 41 134 0.0 3.0 0.00 0.09 0.00 100 1011.0
20181121080106 41 136 2.0 6.0 0.00 0.09 0.00 100 1011.0
20181121075605 40 133 1.0 3.0 0.00 0.09 0.00 100 1011.0
20181121075105 40 156 0.0 0.0 0.00 0.09 0.00 100 1011.0
20181121074605 40 156 0.0 0.0 0.00 0.09 0.00 100 1011.0
20181121073605 40 156 0.0 0.0 0.00 0.09 0.00 100 1011.0
20181121073106 40 156 0.0 0.0 0.00 0.09 0.00 100 1011.0
20181121072605 40 156 0.0 0.0 0.00 0.09 0.00 100 1011.0
20181121072105 40 156 0.0 0.0 0.00 0.09 0.00 100 1011.0
20181121071105 40 156 0.0 0.0 0.00 0.09 0.00 100 1011.0
20181121070606 40 156 0.0 0.0 0.00 0.09 0.00 100 1011.0
20181121065606 40 156 0.0 0.0 0.00 0.09 0.00 100 1011.0
20181121065105 40 156 0.0 0.0 0.00 0.09 0.00 100 1012.0
20181121055105 39 169 1.0 3.0 0.00 0.09 0.00 100 1012.0
20181121054606 39 151 2.0 6.0 0.00 0.09 0.00 100 1012.0
20181121053606 39 172 1.0 3.0 0.00 0.09 0.00 100 1011.1
20181121052606 39 220 0.0 0.0 0.00 0.09 0.00 100 1011.0
20181121052105 39 220 0.0 0.0 0.00 0.09 0.00 100 1012.0
20181121051105 39 151 0.0 0.0 0.00 0.09 0.00 100 1012.0
20181121044606 39 151 0.0 0.0 0.00 0.09 0.00 100 1012.0
20181121043605 39 151 0.0 0.0 0.00 0.09 0.00 100 1012.0
20181121043106 39 151 0.0 3.0 0.00 0.09 0.00 100 1012.0
20181121042605 39 148 2.0 3.0 0.00 0.09 0.00 100 1012.0
20181121042106 39 133 1.0 3.0 0.00 0.09 0.00 100 1012.0
20181121041606 39 128 1.0 3.0 0.00 0.09 0.00 100 1012.0
20181121041105 39 184 0.0 2.0 0.00 0.09 0.00 100 1012.0
20181121035607 39 184 0.0 0.0 0.00 0.09 0.00 100 1012.0
20181121034605 39 184 0.0 0.0 0.00 0.09 0.00 100 1012.0
20181121034106 39 184 0.0 0.0 0.00 0.09 0.00 100 1012.0
20181121033606 39 184 0.0 0.0 0.00 0.09 0.00 100 1013.0
20181121033105 39 184 0.0 0.0 0.00 0.09 0.00 100 1013.0
20181121032605 39 184 0.0 0.0 0.00 0.09 0.00 100 1013.0
20181121032106 39 184 0.0 3.0 0.00 0.09 0.00 100 1013.0
20181121031605 39 171 0.0 3.0 0.00 0.09 0.00 100 1013.0
20181121031105 39 174 0.0 3.0 0.00 0.09 0.00 100 1013.0
20181121030605 39 132 1.0 3.0 0.00 0.09 0.00 100 1013.0
20181121025606 38 134 2.0 3.0 0.00 0.09 0.00 100 1013.0
20181121025105 38 173 0.0 3.0 0.00 0.09 0.00 100 1013.0
20181121024605 38 133 0.0 3.0 0.00 0.09 0.00 100 1013.0
20181121024105 38 155 0.0 0.0 0.00 0.09 0.00 100 1013.0
20181121023606 38 155 0.0 3.0 0.00 0.09 0.00 100 1013.0
20181121023105 38 155 0.0 3.0 0.00 0.09 0.00 100 1013.0
20181121022106 38 155 0.0 0.0 0.00 0.09 0.00 100 1013.0
20181121021605 38 155 0.0 0.0 0.00 0.09 0.00 100 1013.0
20181121020105 38 126 0.0 3.0 0.00 0.09 0.00 100 1013.0
20181121015605 38 152 1.0 3.0 0.00 0.09 0.00 100 1013.0
20181121015105 38 145 0.0 3.0 0.00 0.09 0.00 100 1014.0
20181121014606 38 129 0.0 6.0 0.00 0.09 0.00 100 1014.0
20181121014106 38 136 0.0 6.0 0.00 0.09 0.00 100 1014.0
20181121013606 38 136 0.0 3.0 0.00 0.09 0.00 100 1014.0
20181121013105 38 119 0.0 2.0 0.00 0.09 0.00 100 1014.0
20181121012605 38 119 0.0 2.0 0.00 0.09 0.00 100 1014.0
20181121012105 38 84 0.0 2.0 0.00 0.09 0.00 100 1014.0
20181121011605 38 83 0.0 0.0 0.00 0.09 0.00 100 1014.0
20181121011106 38 84 0.0 3.0 0.00 0.09 0.00 100 1014.0
20181121010605 38 83 0.0 0.0 0.00 0.09 0.00 100 1014.0
20181121005105 38 83 0.0 0.0 0.00 0.09 0.00 100 1014.0
20181121004605 38 83 0.0 0.0 0.00 0.09 0.00 100 1014.0
20181121004105 38 83 0.0 2.0 0.00 0.09 0.00 100 1014.0
20181121003605 38 84 0.0 2.0 0.00 0.09 0.00 100 1014.0
20181121003105 38 84 0.0 0.0 0.00 0.09 0.00 100 1014.0
20181121002105 38 84 0.0 0.0 0.00 0.09 0.00 100 1014.0
20181121001605 37 84 0.0 0.0 0.00 0.09 0.00 100 1014.0
20181121000605 37 84 0.0 0.0 0.00 0.09 0.00 100 1014.9
20181121000105 37 84 0.0 3.0 0.00 0.09 0.00 100 1015.0
20181120235605 37 86 0.0 3.0 0.00 0.09 0.00 100 1015.0
20181120235105 37 107 0.0 0.0 0.00 0.09 0.00 100 1015.0
20181120234605 37 79 0.0 0.0 0.00 0.09 0.00 100 1015.0
20181120234106 37 176 0.0 0.0 0.00 0.09 0.00 100 1015.0
20181120233605 37 176 0.0 0.0 0.00 0.09 0.00 100 1015.0
20181120233105 37 176 0.0 0.0 0.00 0.09 0.00 100 1015.0
20181120232605 37 176 0.0 0.0 0.00 0.09 0.00 100 1015.0
20181120232105 37 176 0.0 0.0 0.00 0.09 0.00 100 1015.0
20181120231105 37 166 0.0 0.0 0.00 0.09 0.00 100 1015.0
20181120230606 37 166 0.0 0.0 0.00 0.09 0.00 100 1015.0
20181120230105 37 166 0.0 0.0 0.00 0.09 0.00 100 1015.0
20181120225605 37 166 0.0 0.0 0.00 0.09 0.00 100 1015.0
20181120223605 37 166 0.0 2.0 0.00 0.09 0.00 100 1015.0
20181120223106 37 168 0.0 2.0 0.00 0.09 0.00 100 1015.0
20181120222106 37 168 0.0 0.0 0.00 0.09 0.00 99 1015.0
20181120221605 37 168 0.0 0.0 0.00 0.09 0.00 99 1015.0
20181120220605 37 168 0.0 0.0 0.00 0.09 0.00 99 1015.0
20181120220106 37 168 0.0 0.0 0.00 0.09 0.00 99 1015.0
20181120215105 37 168 0.0 0.0 0.00 0.09 0.09 99 1015.9
20181120214105 37 168 0.0 0.0 0.00 0.09 0.09 99 1016.0
20181120213605 37 168 0.0 0.0 0.00 0.09 0.09 99 1016.0
20181120213106 37 168 0.0 0.0 0.00 0.09 0.09 99 1016.0
20181120212605 37 168 0.0 0.0 0.00 0.09 0.09 99 1016.0
20181120212105 37 168 0.0 0.0 0.00 0.09 0.09 99 1016.0
20181120211605 37 168 0.0 0.0 0.00 0.09 0.09 99 1016.0
20181120211105 37 168 0.0 0.0 0.00 0.09 0.09 99 1016.0
20181120210605 37 140 0.0 0.0 0.00 0.09 0.09 99 1016.0
20181120210105 37 140 0.0 0.0 0.00 0.09 0.09 99 1016.0